Time;durP1;ratioP1;P1;durP2;ratioP2;P2;SDS_P1;SDS_P2;PMS_P1;PMS_P2;Temp;Humidity;BMP_temperature;BMP_pressure;BME280_temperature;BME280_humidity;BME280_pressure;Samples;Min_cycle;Max_cycle;Signal;HPM_P1;HPM_P2
2021/05/29 00:00:11;;;;;;;2.72;1.00;;;16.00;99.90;;;;;;5030714;28;20030;-76
2021/05/29 00:02:37;;;;;;;1.73;1.10;;;16.00;99.90;;;;;;5041514;28;20048;-76
2021/05/29 00:05:05;;;;;;;3.35;1.15;;;16.00;99.90;;;;;;5033661;28;20061;-74
2021/05/29 00:07:32;;;;;;;3.40;0.85;;;16.00;99.90;;;;;;5024195;28;20035;-77
2021/05/29 00:09:58;;;;;;;1.52;0.85;;;16.10;99.90;;;;;;5030997;28;20025;-76
2021/05/29 00:12:24;;;;;;;1.38;0.90;;;16.10;99.90;;;;;;5032295;28;20136;-75
2021/05/29 00:14:49;;;;;;;3.00;1.38;;;16.00;99.90;;;;;;5015700;28;20026;-75
2021/05/29 00:17:18;;;;;;;5.00;1.10;;;16.00;99.90;;;;;;5034704;28;20036;-76
2021/05/29 00:19:44;;;;;;;6.13;1.17;;;16.00;99.90;;;;;;5032787;28;20391;-78
2021/05/29 00:22:10;;;;;;;1.25;1.05;;;15.90;99.90;;;;;;5044091;28;20040;-75
2021/05/29 00:24:36;;;;;;;1.02;1.02;;;15.90;99.90;;;;;;5037934;28;20025;-76
2021/05/29 00:27:01;;;;;;;1.05;0.90;;;15.90;99.90;;;;;;5034912;28;20049;-77
2021/05/29 00:29:27;;;;;;;1.88;1.10;;;15.90;99.90;;;;;;5041307;28;20037;-74
2021/05/29 00:31:53;;;;;;;3.30;0.82;;;16.00;99.90;;;;;;5036582;28;20025;-75
2021/05/29 00:34:19;;;;;;;0.70;0.70;;;15.90;99.90;;;;;;5027830;28;20049;-76
2021/05/29 00:36:44;;;;;;;2.83;0.52;;;16.00;99.90;;;;;;5013437;28;20061;-77
2021/05/29 00:39:10;;;;;;;1.42;1.10;;;16.00;99.90;;;;;;5011435;28;20077;-77
2021/05/29 00:41:36;;;;;;;3.28;1.30;;;16.00;99.90;;;;;;5010528;28;20018;-76
2021/05/29 00:44:02;;;;;;;0.85;0.80;;;15.90;99.90;;;;;;5013960;28;20504;-75
2021/05/29 00:46:28;;;;;;;2.13;1.13;;;15.90;99.90;;;;;;5004757;28;20230;-76
2021/05/29 00:48:54;;;;;;;1.30;1.13;;;15.90;99.90;;;;;;5009578;28;20098;-77
2021/05/29 00:51:20;;;;;;;1.40;1.15;;;16.00;99.90;;;;;;5009449;28;20026;-75
2021/05/29 00:53:47;;;;;;;0.75;0.75;;;15.90;99.90;;;;;;5009134;28;20034;-75
2021/05/29 00:56:13;;;;;;;1.05;1.00;;;15.90;99.90;;;;;;5000446;28;20025;-77
2021/05/29 00:58:41;;;;;;;1.08;0.98;;;15.90;99.90;;;;;;5008274;28;20105;-75
2021/05/29 01:01:06;;;;;;;2.38;0.85;;;15.80;99.90;;;;;;4992644;28;20038;-76
2021/05/29 01:03:36;;;;;;;1.90;0.88;;;15.80;99.90;;;;;;5009960;28;20026;-76
2021/05/29 01:06:03;;;;;;;3.40;1.05;;;15.80;99.90;;;;;;5010035;28;20079;-76
2021/05/29 01:08:28;;;;;;;1.75;1.20;;;15.70;99.90;;;;;;5017062;28;20025;-75
2021/05/29 01:10:54;;;;;;;0.80;0.80;;;15.70;99.90;;;;;;5012395;28;20022;-76
2021/05/29 01:13:27;;;;;;;1.17;1.08;;;15.60;99.90;;;;;;5010074;28;20030;-77
2021/05/29 01:15:55;;;;;;;1.38;0.90;;;15.50;99.90;;;;;;5010859;28;20068;-76
2021/05/29 01:18:21;;;;;;;3.75;1.20;;;15.50;99.90;;;;;;5018231;28;20014;-76
2021/05/29 01:20:48;;;;;;;1.20;1.10;;;15.50;99.90;;;;;;5016901;28;20018;-76
2021/05/29 01:23:14;;;;;;;1.40;1.00;;;15.40;99.90;;;;;;5011525;28;20021;-76
2021/05/29 01:25:46;;;;;;;1.65;1.08;;;15.40;99.90;;;;;;5012666;28;20022;-79
2021/05/29 01:28:24;;;;;;;1.10;0.98;;;15.50;99.90;;;;;;5012996;28;20026;-75
2021/05/29 01:30:59;;;;;;;1.35;1.05;;;15.50;99.90;;;;;;5013433;28;20372;-75
2021/05/29 01:33:27;;;;;;;1.23;1.13;;;15.70;99.90;;;;;;5015657;28;20033;-75
2021/05/29 01:35:58;;;;;;;4.63;1.15;;;15.70;99.90;;;;;;5032924;28;20113;-76
2021/05/29 01:38:24;;;;;;;2.08;1.10;;;15.80;99.90;;;;;;5021203;28;20045;-78
2021/05/29 01:40:50;;;;;;;0.82;0.82;;;15.70;99.90;;;;;;5032129;28;20477;-75
2021/05/29 01:43:17;;;;;;;7.82;1.20;;;15.70;99.90;;;;;;5030521;28;20492;-78
2021/05/29 01:45:44;;;;;;;1.40;0.98;;;15.60;99.90;;;;;;5032242;28;20075;-75
2021/05/29 01:48:10;;;;;;;1.33;1.08;;;15.70;99.90;;;;;;5031963;28;20055;-75
2021/05/29 01:50:46;;;;;;;1.02;0.90;;;15.60;99.90;;;;;;5031932;28;20400;-76
2021/05/29 01:53:13;;;;;;;0.90;0.90;;;15.60;99.90;;;;;;5026353;28;20018;-77
2021/05/29 01:55:38;;;;;;;4.07;1.10;;;15.60;99.90;;;;;;5029457;28;20022;-76
2021/05/29 01:58:04;;;;;;;1.58;0.88;;;15.60;99.90;;;;;;5031022;28;20025;-77
2021/05/29 02:00:30;;;;;;;1.25;1.15;;;15.60;99.90;;;;;;5030182;28;20021;-76
2021/05/29 02:02:57;;;;;;;1.10;1.00;;;15.60;99.90;;;;;;5031549;28;20112;-75
2021/05/29 02:05:25;;;;;;;5.07;0.98;;;15.60;99.90;;;;;;5032027;28;20430;-77
2021/05/29 02:07:52;;;;;;;1.02;0.80;;;15.60;99.90;;;;;;5031624;28;20028;-75
2021/05/29 02:10:23;;;;;;;1.45;0.88;;;15.60;99.90;;;;;;5031859;28;20033;-75
2021/05/29 02:12:55;;;;;;;2.08;1.30;;;15.60;99.90;;;;;;5013367;28;20475;-75
2021/05/29 02:15:23;;;;;;;6.55;1.23;;;15.70;99.90;;;;;;5024695;28;20056;-75
2021/05/29 02:17:52;;;;;;;1.60;1.50;;;15.70;99.90;;;;;;5032363;28;20131;-76
2021/05/29 02:20:27;;;;;;;1.00;1.00;;;15.70;99.90;;;;;;5032336;28;20033;-76
2021/05/29 02:22:53;;;;;;;1.25;1.13;;;15.70;99.90;;;;;;5031213;28;20018;-76
2021/05/29 02:25:19;;;;;;;1.10;0.90;;;15.60;99.90;;;;;;5031513;28;20086;-76
2021/05/29 02:27:45;;;;;;;2.22;1.05;;;15.60;99.90;;;;;;5031166;28;20024;-74
2021/05/29 02:30:11;;;;;;;1.27;0.85;;;15.70;99.90;;;;;;5031592;28;20010;-74
2021/05/29 02:32:37;;;;;;;1.38;1.27;;;15.70;99.90;;;;;;5031152;28;20057;-75
2021/05/29 02:35:03;;;;;;;1.08;0.98;;;15.70;99.90;;;;;;5032278;28;20061;-75
2021/05/29 02:37:29;;;;;;;3.97;1.00;;;15.70;99.90;;;;;;5032538;28;20470;-75
2021/05/29 02:39:55;;;;;;;8.05;1.13;;;15.60;99.90;;;;;;5040780;28;20055;-75
2021/05/29 02:42:20;;;;;;;1.85;1.02;;;15.60;99.90;;;;;;5039765;28;20395;-77
2021/05/29 02:44:47;;;;;;;3.05;1.30;;;15.60;99.90;;;;;;5039020;28;20638;-73
2021/05/29 02:47:13;;;;;;;1.27;1.08;;;15.70;99.90;;;;;;5044473;28;20025;-75
2021/05/29 02:49:39;;;;;;;0.93;0.88;;;15.70;99.90;;;;;;5038426;28;20029;-78
2021/05/29 02:52:05;;;;;;;1.08;0.98;;;15.60;99.90;;;;;;5042297;28;20067;-76
2021/05/29 02:54:33;;;;;;;7.55;1.55;;;15.60;99.90;;;;;;5034906;28;20032;-77
2021/05/29 02:56:58;;;;;;;1.30;1.17;;;15.60;99.90;;;;;;5014762;28;20071;-75
2021/05/29 02:59:24;;;;;;;1.48;1.38;;;15.60;99.90;;;;;;5043509;28;20021;-75
2021/05/29 03:01:50;;;;;;;2.40;1.23;;;15.60;99.90;;;;;;5022839;28;20052;-75
2021/05/29 03:04:15;;;;;;;1.83;1.15;;;15.60;99.90;;;;;;5037739;28;20025;-77
2021/05/29 03:06:41;;;;;;;2.72;1.15;;;15.60;99.90;;;;;;5037980;28;20452;-75
2021/05/29 03:09:07;;;;;;;1.33;1.23;;;15.70;99.90;;;;;;5042071;28;20029;-75
2021/05/29 03:11:40;;;;;;;1.40;1.30;;;15.70;99.90;;;;;;5039794;28;20049;-76
2021/05/29 03:14:06;;;;;;;1.17;1.02;;;15.70;99.90;;;;;;5038456;28;20391;-75
2021/05/29 03:16:32;;;;;;;1.30;1.20;;;15.70;99.90;;;;;;5038559;28;20036;-75
2021/05/29 03:18:57;;;;;;;1.52;1.42;;;15.70;99.90;;;;;;5037121;28;20419;-75
2021/05/29 03:21:23;;;;;;;1.40;1.30;;;15.70;99.90;;;;;;5033692;28;20021;-75
2021/05/29 03:23:49;;;;;;;1.02;0.85;;;15.70;99.90;;;;;;5040813;28;20060;-75
2021/05/29 03:26:15;;;;;;;1.50;1.40;;;15.60;99.90;;;;;;5032914;28;20099;-75
2021/05/29 03:28:40;;;;;;;1.45;1.35;;;15.70;99.90;;;;;;5034396;28;20021;-74
2021/05/29 03:31:06;;;;;;;1.48;1.13;;;15.70;99.90;;;;;;5038121;28;20483;-74
2021/05/29 03:33:32;;;;;;;3.15;1.13;;;15.70;99.90;;;;;;5042143;28;20100;-76
2021/05/29 03:35:58;;;;;;;3.08;1.35;;;15.80;99.90;;;;;;5027400;28;20033;-76
2021/05/29 03:38:23;;;;;;;1.45;1.35;;;15.80;99.90;;;;;;5030006;28;20065;-76
2021/05/29 03:40:49;;;;;;;3.17;1.35;;;15.80;99.90;;;;;;5030896;28;20033;-75
2021/05/29 03:43:15;;;;;;;2.28;1.20;;;15.90;99.90;;;;;;5030409;28;20014;-75
2021/05/29 03:45:40;;;;;;;1.17;1.08;;;15.90;99.90;;;;;;5030533;28;20426;-75
2021/05/29 03:48:06;;;;;;;1.80;1.50;;;15.80;99.90;;;;;;5029823;28;20052;-75
2021/05/29 03:50:32;;;;;;;4.90;1.70;;;15.90;99.90;;;;;;5029917;28;20079;-75
2021/05/29 03:52:58;;;;;;;1.42;1.25;;;15.90;99.90;;;;;;5030482;28;20018;-75
2021/05/29 03:55:24;;;;;;;1.30;0.90;;;15.90;99.90;;;;;;5029278;28;20076;-75
2021/05/29 03:57:51;;;;;;;1.73;1.27;;;16.00;99.90;;;;;;5029325;28;20014;-75
2021/05/29 04:00:19;;;;;;;3.70;2.20;;;15.90;99.90;;;;;;5029672;28;20125;-75
2021/05/29 04:02:49;;;;;;;2.65;1.77;;;16.00;99.90;;;;;;5030529;28;20057;-75
2021/05/29 04:05:16;;;;;;;4.32;1.52;;;16.00;99.90;;;;;;5030819;28;20029;-75
2021/05/29 04:07:42;;;;;;;2.03;1.10;;;16.20;99.90;;;;;;5030353;28;20039;-75
2021/05/29 04:10:13;;;;;;;1.63;1.23;;;16.10;99.90;;;;;;5030596;28;20032;-74
2021/05/29 04:12:39;;;;;;;1.50;1.40;;;16.10;99.90;;;;;;5028521;28;20044;-76
2021/05/29 04:15:07;;;;;;;3.97;1.50;;;16.30;99.90;;;;;;5029749;28;20292;-74
2021/05/29 04:17:32;;;;;;;1.85;1.17;;;16.30;99.90;;;;;;5030213;28;20025;-75
2021/05/29 04:19:58;;;;;;;4.03;1.63;;;16.30;99.90;;;;;;5029886;28;20018;-74
2021/05/29 04:22:25;;;;;;;2.83;1.25;;;16.40;99.90;;;;;;5029927;28;20439;-74
2021/05/29 04:24:51;;;;;;;1.70;1.40;;;16.30;99.90;;;;;;5029307;28;20029;-74
2021/05/29 04:27:18;;;;;;;2.35;1.80;;;16.30;99.90;;;;;;5013071;28;20032;-76
2021/05/29 04:29:46;;;;;;;2.42;1.45;;;16.30;99.90;;;;;;5031396;28;20030;-75
2021/05/29 04:32:12;;;;;;;2.75;2.00;;;16.40;99.90;;;;;;5017869;28;20026;-74
2021/05/29 04:34:38;;;;;;;1.55;1.38;;;16.50;99.90;;;;;;5030112;28;20055;-75
2021/05/29 04:37:05;;;;;;;1.00;0.85;;;16.50;99.90;;;;;;5029919;28;20037;-75
2021/05/29 04:39:31;;;;;;;1.55;1.33;;;16.50;99.90;;;;;;5030066;28;20018;-75
2021/05/29 04:41:57;;;;;;;1.58;1.38;;;16.70;99.90;;;;;;5028438;28;20021;-75
2021/05/29 04:44:23;;;;;;;1.83;1.17;;;16.70;99.90;;;;;;5030160;28;20438;-77
2021/05/29 04:46:52;;;;;;;1.63;1.52;;;16.80;99.90;;;;;;5031963;28;20017;-75
2021/05/29 04:49:22;;;;;;;1.45;1.35;;;16.90;99.90;;;;;;5033892;28;20041;-75
2021/05/29 04:51:48;;;;;;;1.85;1.17;;;16.90;99.90;;;;;;5034217;28;20026;-77
2021/05/29 04:54:15;;;;;;;1.25;1.02;;;17.00;99.90;;;;;;5034670;28;20018;-75
2021/05/29 04:56:41;;;;;;;1.63;1.23;;;17.20;99.90;;;;;;5037414;28;20108;-76
2021/05/29 04:59:07;;;;;;;3.20;1.20;;;17.20;99.90;;;;;;5036348;28;20045;-76
2021/05/29 05:01:33;;;;;;;1.20;1.10;;;17.30;99.90;;;;;;5035959;28;20052;-75
2021/05/29 05:04:00;;;;;;;1.25;1.17;;;17.40;99.90;;;;;;5036440;28;20022;-75
2021/05/29 05:06:27;;;;;;;1.00;1.00;;;17.40;99.90;;;;;;5034302;28;20026;-76
2021/05/29 05:08:53;;;;;;;4.30;1.30;;;17.50;99.90;;;;;;5033789;28;20494;-77
2021/05/29 05:11:19;;;;;;;3.08;1.30;;;17.40;99.90;;;;;;5034033;28;20441;-75
2021/05/29 05:13:46;;;;;;;1.65;1.08;;;17.50;99.90;;;;;;5033653;28;20108;-74
2021/05/29 05:16:12;;;;;;;4.65;1.38;;;17.50;99.90;;;;;;5022837;28;20383;-74
2021/05/29 05:18:38;;;;;;;1.70;1.35;;;17.50;99.90;;;;;;5021882;28;20018;-78
2021/05/29 05:21:04;;;;;;;3.42;1.60;;;17.50;99.90;;;;;;5033319;28;20033;-75
2021/05/29 05:23:30;;;;;;;3.67;1.73;;;17.50;99.90;;;;;;5033468;28;20517;-76
2021/05/29 05:25:56;;;;;;;2.35;2.15;;;17.70;99.90;;;;;;5016437;28;20025;-76
2021/05/29 05:28:27;;;;;;;1.48;1.38;;;17.80;99.90;;;;;;5033253;28;20091;-76
2021/05/29 05:30:58;;;;;;;2.03;1.55;;;17.80;99.90;;;;;;5033509;28;20038;-77
2021/05/29 05:33:26;;;;;;;1.48;1.25;;;17.90;99.90;;;;;;5033905;28;20086;-76
2021/05/29 05:35:53;;;;;;;2.25;1.98;;;17.90;99.90;;;;;;5039331;28;20029;-76
2021/05/29 05:38:19;;;;;;;1.48;1.35;;;18.00;99.90;;;;;;5044767;28;20017;-75
2021/05/29 05:40:45;;;;;;;1.30;1.15;;;18.10;99.90;;;;;;5032505;28;20032;-75
2021/05/29 05:43:11;;;;;;;2.20;1.55;;;18.10;99.90;;;;;;5022457;28;20025;-75
2021/05/29 05:45:38;;;;;;;1.13;1.02;;;18.20;99.90;;;;;;5041233;28;20029;-74
2021/05/29 05:48:04;;;;;;;5.75;1.40;;;18.30;99.90;;;;;;5041516;28;20104;-76
2021/05/29 05:50:30;;;;;;;3.22;1.25;;;18.40;99.90;;;;;;5043137;28;20111;-75
2021/05/29 05:52:56;;;;;;;7.22;3.70;;;18.50;99.90;;;;;;5041468;28;20030;-74
2021/05/29 05:55:21;;;;;;;2.38;1.23;;;18.60;99.90;;;;;;5039962;28;20494;-79
2021/05/29 05:57:47;;;;;;;3.97;1.67;;;18.70;99.90;;;;;;5039911;28;20364;-75
2021/05/29 06:00:16;;;;;;;2.75;1.73;;;18.80;99.90;;;;;;5035909;28;20585;-75
2021/05/29 06:02:43;;;;;;;3.60;1.70;;;18.90;99.90;;;;;;5039469;28;20022;-77
2021/05/29 06:05:09;;;;;;;2.72;2.42;;;19.00;99.90;;;;;;5042645;28;20113;-76
2021/05/29 06:07:35;;;;;;;5.75;2.70;;;19.20;99.90;;;;;;5039470;28;20018;-75
2021/05/29 06:10:03;;;;;;;3.15;1.73;;;19.40;99.90;;;;;;5036567;28;20033;-76
2021/05/29 06:12:30;;;;;;;5.70;2.08;;;19.50;99.90;;;;;;5032539;28;20113;-75
2021/05/29 06:18:06;;;;;;;4.57;3.08;;;19.70;99.90;;;;;;5038856;28;20024;-76
2021/05/29 06:20:34;;;;;;;2.50;1.48;;;19.80;99.90;;;;;;5026993;28;20063;-75
2021/05/29 06:23:00;;;;;;;1.90;1.35;;;19.90;99.90;;;;;;5038226;28;20053;-74
2021/05/29 06:25:25;;;;;;;4.10;2.72;;;19.90;99.90;;;;;;5021354;28;20114;-75
2021/05/29 06:27:51;;;;;;;3.90;2.20;;;20.00;99.90;;;;;;5026146;28;20384;-75
2021/05/29 06:30:17;;;;;;;2.65;1.55;;;20.10;99.90;;;;;;5038945;28;20033;-75
2021/05/29 06:32:43;;;;;;;7.13;2.30;;;20.00;99.90;;;;;;5030609;28;20025;-75
2021/05/29 06:35:09;;;;;;;2.05;1.80;;;19.80;99.90;;;;;;5042597;28;20418;-79
2021/05/29 06:37:36;;;;;;;4.68;1.73;;;19.90;99.90;;;;;;5038006;28;20109;-77
2021/05/29 06:40:05;;;;;;;2.38;2.08;;;19.80;99.90;;;;;;5037930;28;20017;-76
2021/05/29 06:42:31;;;;;;;1.85;1.55;;;19.80;99.90;;;;;;5040720;28;20591;-75
2021/05/29 06:44:57;;;;;;;2.67;1.80;;;19.80;99.90;;;;;;5042376;28;20060;-74
2021/05/29 06:47:22;;;;;;;3.33;1.92;;;19.80;99.90;;;;;;5044451;28;20395;-76
2021/05/29 06:49:48;;;;;;;4.75;2.63;;;19.80;99.90;;;;;;5037097;28;20028;-75
2021/05/29 06:52:17;;;;;;;6.53;2.53;;;19.90;99.90;;;;;;5035875;28;20061;-78
2021/05/29 07:00:11;;;;;;;2.35;2.15;;;19.80;99.90;;;;;;5047502;28;20075;-75
2021/05/29 07:02:38;;;;;;;3.90;2.38;;;19.90;99.90;;;;;;5039835;28;20364;-75
2021/05/29 07:05:05;;;;;;;3.67;2.40;;;20.10;99.90;;;;;;5021860;28;20032;-74
2021/05/29 07:07:31;;;;;;;2.00;1.60;;;20.20;99.90;;;;;;5031852;28;20057;-74
2021/05/29 07:09:57;;;;;;;2.67;1.92;;;20.10;99.90;;;;;;5032327;28;20045;-73
2021/05/29 07:12:23;;;;;;;4.75;1.88;;;20.30;99.90;;;;;;5028585;28;20104;-73
2021/05/29 07:14:49;;;;;;;3.83;1.98;;;20.30;99.90;;;;;;5036472;28;20498;-75
2021/05/29 07:17:15;;;;;;;1.75;1.65;;;20.50;99.90;;;;;;5042155;28;20044;-74
2021/05/29 07:19:41;;;;;;;5.10;1.85;;;20.30;99.90;;;;;;5035135;28;20095;-74
2021/05/29 07:22:07;;;;;;;2.13;1.45;;;20.20;99.90;;;;;;5033099;28;20459;-73
2021/05/29 07:24:33;;;;;;;2.10;1.90;;;20.30;99.90;;;;;;5046585;28;20471;-74
2021/05/29 07:27:00;;;;;;;3.05;1.83;;;20.30;99.90;;;;;;5037388;28;20021;-73
2021/05/29 07:29:27;;;;;;;3.05;1.58;;;20.20;99.90;;;;;;5029691;28;20412;-73
2021/05/29 07:31:53;;;;;;;4.60;1.73;;;20.20;99.90;;;;;;5035803;28;20112;-73
2021/05/29 07:34:19;;;;;;;2.42;1.40;;;20.30;99.90;;;;;;5036198;28;20168;-73
2021/05/29 07:36:44;;;;;;;4.03;1.60;;;20.40;99.90;;;;;;5038179;28;20052;-74
2021/05/29 07:39:11;;;;;;;3.13;1.73;;;20.40;99.90;;;;;;5030691;28;20025;-74
2021/05/29 07:41:37;;;;;;;3.80;1.77;;;20.50;99.90;;;;;;5038394;28;20030;-72
2021/05/29 07:44:05;;;;;;;2.22;1.65;;;20.50;99.90;;;;;;5037236;28;20017;-75
2021/05/29 07:46:32;;;;;;;1.02;0.93;;;20.50;99.90;;;;;;5038113;28;20072;-73
2021/05/29 07:48:59;;;;;;;5.65;1.45;;;20.60;99.90;;;;;;5036863;28;20021;-74
2021/05/29 07:51:25;;;;;;;1.65;1.45;;;20.70;99.90;;;;;;5035651;28;20013;-66
2021/05/29 07:53:51;;;;;;;3.05;1.73;;;20.70;99.90;;;;;;5034667;28;20399;-67
2021/05/29 07:56:20;;;;;;;3.58;1.45;;;20.80;99.90;;;;;;5034860;28;20455;-68
2021/05/29 07:58:47;;;;;;;2.35;1.38;;;21.00;99.90;;;;;;5038131;28;20043;-69
2021/05/29 08:01:15;;;;;;;2.63;1.40;;;21.00;99.90;;;;;;5034595;28;20041;-68
2021/05/29 08:03:41;;;;;;;2.35;2.15;;;21.10;99.90;;;;;;5034299;28;20024;-69
2021/05/29 08:06:14;;;;;;;12.30;1.90;;;21.10;99.90;;;;;;5036287;28;20112;-69
2021/05/29 08:08:40;;;;;;;2.10;1.90;;;21.10;99.90;;;;;;5034212;28;20494;-68
2021/05/29 08:11:06;;;;;;;3.15;2.33;;;21.30;99.90;;;;;;5036917;28;20050;-68
2021/05/29 08:13:32;;;;;;;5.13;2.05;;;21.40;99.90;;;;;;5035900;28;20063;-69
2021/05/29 08:15:58;;;;;;;2.45;1.80;;;21.40;99.90;;;;;;5038547;28;20036;-70
2021/05/29 08:18:24;;;;;;;4.38;2.25;;;21.30;99.90;;;;;;5035393;28;20471;-69
2021/05/29 08:20:51;;;;;;;3.60;2.45;;;21.40;99.90;;;;;;5034014;28;20026;-69
2021/05/29 08:23:18;;;;;;;3.00;1.80;;;21.40;99.90;;;;;;5036403;28;20022;-69
2021/05/29 08:25:45;;;;;;;3.60;1.50;;;21.50;99.90;;;;;;5030007;28;20021;-70
2021/05/29 08:28:11;;;;;;;1.85;1.50;;;21.80;99.90;;;;;;5031819;28;20029;-68
2021/05/29 08:30:37;;;;;;;1.40;1.30;;;22.00;99.90;;;;;;5031384;28;20433;-69
2021/05/29 08:33:03;;;;;;;3.33;1.77;;;22.50;99.90;;;;;;5037560;28;20087;-69
2021/05/29 08:35:29;;;;;;;1.48;1.15;;;22.90;99.90;;;;;;5032684;28;20519;-72
2021/05/29 08:37:54;;;;;;;3.83;1.25;;;23.30;99.90;;;;;;5032599;28;20018;-73
2021/05/29 08:40:21;;;;;;;2.53;1.45;;;23.70;99.90;;;;;;5027792;28;20055;-73
2021/05/29 08:42:48;;;;;;;1.38;1.10;;;23.90;99.90;;;;;;5031749;28;20025;-73
2021/05/29 08:45:15;;;;;;;3.20;1.15;;;24.20;99.90;;;;;;5018431;28;20029;-73
2021/05/29 08:47:41;;;;;;;1.70;1.10;;;24.30;99.90;;;;;;5033015;28;20021;-74
2021/05/29 08:50:09;;;;;;;1.48;1.00;;;24.00;99.90;;;;;;5027820;28;20405;-72
2021/05/29 08:52:38;;;;;;;4.10;1.52;;;23.40;99.90;;;;;;5031255;28;20029;-73
2021/05/29 08:55:09;;;;;;;1.65;0.95;;;23.30;99.90;;;;;;5021981;28;20036;-73
2021/05/29 08:57:36;;;;;;;2.22;0.80;;;23.30;99.90;;;;;;5024136;28;20024;-73
2021/05/29 09:00:04;;;;;;;1.85;1.17;;;23.60;99.90;;;;;;5032492;28;20049;-72
2021/05/29 09:02:31;;;;;;;3.92;1.67;;;23.80;99.90;;;;;;5031147;28;20187;-73
2021/05/29 09:05:11;;;;;;;2.92;1.20;;;23.90;99.90;;;;;;5035796;28;20117;-73
2021/05/29 09:07:37;;;;;;;16.63;1.60;;;23.70;99.90;;;;;;5017340;28;20144;-73
2021/05/29 09:10:21;;;;;;;1.38;1.27;;;23.70;99.90;;;;;;5032166;28;20479;-73
2021/05/29 09:13:07;;;;;;;2.60;1.67;;;23.70;99.90;;;;;;5028441;28;20033;-73
2021/05/29 09:15:54;;;;;;;4.97;1.58;;;23.70;99.90;;;;;;5044901;28;20078;-73
2021/05/29 09:18:39;;;;;;;1.65;1.40;;;23.60;99.90;;;;;;5027167;28;20052;-74
2021/05/29 09:21:31;;;;;;;1.83;1.50;;;23.60;99.90;;;;;;5036066;28;20072;-72
2021/05/29 09:24:04;;;;;;;2.47;1.40;;;23.40;99.90;;;;;;5032223;28;20052;-72
2021/05/29 09:26:50;;;;;;;4.97;1.55;;;23.40;99.90;;;;;;5044231;28;20043;-72
2021/05/29 09:29:22;;;;;;;4.50;2.97;;;23.50;99.90;;;;;;5030500;28;20026;-74
2021/05/29 09:31:53;;;;;;;6.20;3.25;;;23.50;99.90;;;;;;5032805;28;20064;-74
2021/05/29 09:34:41;;;;;;;5.80;2.92;;;23.70;99.90;;;;;;5023226;28;20041;-73
2021/05/29 09:37:12;;;;;;;5.90;1.60;;;23.80;99.90;;;;;;5030717;28;20036;-73
2021/05/29 09:39:44;;;;;;;2.50;2.05;;;24.00;99.90;;;;;;5027521;28;20017;-72
2021/05/29 09:42:11;;;;;;;3.40;1.90;;;24.20;99.90;;;;;;5017724;28;20037;-72
2021/05/29 09:44:38;;;;;;;1.70;1.48;;;24.20;99.90;;;;;;5031138;28;20021;-72
2021/05/29 09:47:08;;;;;;;4.78;1.58;;;24.00;99.90;;;;;;5031356;28;20029;-73
2021/05/29 09:49:49;;;;;;;92.80;5.05;;;23.70;99.90;;;;;;5014813;28;20029;-72
2021/05/29 09:52:23;;;;;;;2.87;1.83;;;23.20;99.90;;;;;;5026794;28;20035;-77
2021/05/29 09:54:50;;;;;;;2.08;1.60;;;23.00;99.90;;;;;;5031827;28;20033;-76
2021/05/29 09:57:16;;;;;;;3.58;2.30;;;23.00;99.90;;;;;;5031489;28;20053;-76
2021/05/29 09:59:56;;;;;;;3.72;1.90;;;22.70;99.90;;;;;;5031734;28;20491;-77
2021/05/29 10:02:22;;;;;;;4.18;1.80;;;22.40;99.90;;;;;;5030959;28;20018;-80
2021/05/29 10:04:55;;;;;;;4.82;2.22;;;22.50;99.90;;;;;;5031538;28;20108;-76
2021/05/29 10:07:22;;;;;;;4.57;1.98;;;22.20;99.90;;;;;;5030397;28;20053;-74
2021/05/29 10:09:49;;;;;;;3.15;2.33;;;22.10;99.90;;;;;;5028373;28;20550;-73
2021/05/29 10:12:15;;;;;;;4.80;2.20;;;22.00;99.90;;;;;;5031406;28;20040;-73
2021/05/29 10:14:41;;;;;;;7.45;2.22;;;22.20;99.90;;;;;;5029352;28;20465;-72
2021/05/29 10:17:12;;;;;;;4.75;2.45;;;22.20;99.90;;;;;;5030579;28;20025;-73
2021/05/29 10:19:39;;;;;;;3.72;2.05;;;22.30;99.90;;;;;;5020925;28;20022;-73
2021/05/29 10:22:07;;;;;;;5.53;2.20;;;22.40;99.90;;;;;;5030584;28;20031;-74
2021/05/29 10:24:33;;;;;;;3.00;2.38;;;22.30;99.90;;;;;;5033517;28;20063;-72
2021/05/29 10:27:05;;;;;;;2.17;1.95;;;22.10;99.90;;;;;;5026700;28;20081;-72
2021/05/29 10:29:31;;;;;;;6.15;2.22;;;22.00;99.90;;;;;;5031882;28;20017;-73
2021/05/29 10:32:19;;;;;;;2.22;1.98;;;21.80;99.90;;;;;;5030783;28;20029;-73
2021/05/29 10:35:00;;;;;;;2.03;1.80;;;22.10;99.90;;;;;;5029916;28;20087;-72
2021/05/29 10:37:31;;;;;;;3.10;2.42;;;22.60;99.90;;;;;;5029609;28;20021;-73
2021/05/29 10:40:17;;;;;;;2.88;2.60;;;23.00;99.90;;;;;;5029992;28;20100;-73
2021/05/29 10:42:44;;;;;;;3.50;2.13;;;23.30;99.90;;;;;;5033668;28;20032;-73
2021/05/29 10:45:24;;;;;;;4.03;2.83;;;23.50;99.90;;;;;;5029630;28;20034;-74
2021/05/29 10:48:13;;;;;;;9.75;4.90;;;23.50;99.90;;;;;;5025722;28;20508;-73
2021/05/29 10:51:26;;;;;;;6.05;5.55;;;23.30;99.90;;;;;;5028407;28;20391;-74
2021/05/29 10:53:56;;;;;;;6.10;5.57;;;23.10;99.90;;;;;;5022919;28;20483;-74
2021/05/29 10:56:22;;;;;;;5.53;5.03;;;22.80;99.90;;;;;;5029907;28;20046;-73
2021/05/29 10:59:07;;;;;;;7.35;6.75;;;22.40;99.90;;;;;;5030396;28;20025;-73
2021/05/29 11:01:35;;;;;;;6.93;6.22;;;22.40;99.90;;;;;;5029902;28;20021;-73
2021/05/29 11:04:15;;;;;;;6.53;5.85;;;22.30;99.90;;;;;;5039375;28;20020;-73
2021/05/29 11:06:44;;;;;;;10.10;4.53;;;22.20;99.90;;;;;;5029154;28;20029;-73
2021/05/29 11:09:12;;;;;;;8.15;5.20;;;22.00;99.90;;;;;;5033875;28;20010;-76
2021/05/29 11:11:48;;;;;;;3.88;3.58;;;22.10;99.90;;;;;;5025465;28;20087;-75
2021/05/29 11:14:19;;;;;;;8.05;3.58;;;22.10;99.90;;;;;;5029969;28;20649;-74
2021/05/29 11:16:47;;;;;;;9.30;4.28;;;22.00;99.90;;;;;;5029105;28;20025;-73
2021/05/29 11:19:15;;;;;;;5.47;3.80;;;22.00;99.90;;;;;;5029944;28;20014;-73
2021/05/29 11:22:00;;;;;;;5.63;5.05;;;22.00;99.90;;;;;;5028876;28;20025;-73
2021/05/29 11:24:31;;;;;;;6.75;5.45;;;21.90;99.90;;;;;;5031002;28;20018;-73
2021/05/29 11:26:57;;;;;;;7.03;6.25;;;21.80;99.90;;;;;;5028711;28;20030;-72
2021/05/29 11:29:22;;;;;;;7.57;5.93;;;21.90;99.90;;;;;;5023768;28;20087;-74
2021/05/29 11:31:49;;;;;;;6.63;5.47;;;22.00;99.90;;;;;;5030514;28;20029;-73
2021/05/29 11:34:16;;;;;;;6.82;5.97;;;21.90;99.90;;;;;;5029828;28;20029;-73
2021/05/29 11:36:42;;;;;;;6.43;5.35;;;22.10;99.90;;;;;;5029553;28;21790;-73
2021/05/29 11:39:10;;;;;;;4.65;2.83;;;22.30;99.90;;;;;;5030125;28;20112;-74
2021/05/29 11:41:36;;;;;;;4.43;3.75;;;22.50;99.90;;;;;;5028003;28;20025;-75
2021/05/29 11:44:03;;;;;;;2.78;2.58;;;22.60;99.90;;;;;;5030573;28;20020;-74
2021/05/29 11:46:30;;;;;;;3.55;2.70;;;22.50;99.90;;;;;;5029260;28;20025;-75
2021/05/29 11:49:00;;;;;;;4.88;2.55;;;22.60;99.90;;;;;;5028215;28;20022;-73
2021/05/29 11:51:36;;;;;;;3.42;2.63;;;22.30;99.90;;;;;;5027690;28;20514;-72
2021/05/29 11:54:04;;;;;;;3.78;2.00;;;22.30;99.90;;;;;;5010143;28;20476;-75
2021/05/29 11:56:34;;;;;;;2.60;1.85;;;22.60;99.90;;;;;;5028789;28;20072;-73
2021/05/29 11:59:01;;;;;;;4.32;1.60;;;22.50;99.90;;;;;;5028790;28;20025;-74
2021/05/29 12:01:37;;;;;;;2.28;1.67;;;22.30;99.90;;;;;;5029599;28;20399;-75
2021/05/29 12:04:06;;;;;;;1.60;1.50;;;22.40;99.90;;;;;;5029957;28;20083;-74
2021/05/29 12:07:02;;;;;;;6.18;1.98;;;22.30;99.90;;;;;;5027126;28;20025;-74
2021/05/29 12:09:35;;;;;;;2.45;1.52;;;22.30;99.90;;;;;;5027910;28;20104;-74
2021/05/29 12:12:04;;;;;;;2.45;1.33;;;22.20;99.90;;;;;;5029369;28;20041;-74
2021/05/29 12:14:33;;;;;;;2.20;1.77;;;22.30;99.90;;;;;;5026670;28;20103;-75
2021/05/29 12:17:00;;;;;;;2.85;1.67;;;22.50;99.90;;;;;;5027759;28;20487;-73
2021/05/29 12:19:28;;;;;;;1.98;1.52;;;22.60;99.90;;;;;;5027283;28;20036;-74
2021/05/29 12:21:56;;;;;;;4.25;1.60;;;22.50;99.90;;;;;;5027239;28;20032;-72
2021/05/29 12:24:24;;;;;;;3.67;1.33;;;22.60;99.90;;;;;;5027669;28;20029;-74
2021/05/29 12:26:51;;;;;;;2.97;1.00;;;22.70;99.90;;;;;;5019114;28;20168;-74
2021/05/29 12:29:22;;;;;;;2.90;1.65;;;22.90;99.90;;;;;;5030323;28;20049;-73
2021/05/29 12:31:51;;;;;;;2.60;1.60;;;23.20;99.90;;;;;;5019885;28;20033;-75
2021/05/29 12:34:18;;;;;;;1.85;1.75;;;23.60;99.90;;;;;;5028445;28;20033;-72
2021/05/29 12:37:00;;;;;;;1.85;1.25;;;23.70;99.90;;;;;;5020067;28;20029;-73
2021/05/29 12:39:47;;;;;;;3.60;1.33;;;24.00;99.90;;;;;;5030295;28;20041;-73
2021/05/29 12:42:26;;;;;;;1.63;1.42;;;23.80;99.90;;;;;;5029432;28;20454;-73
2021/05/29 12:44:55;;;;;;;1.77;1.13;;;23.70;99.90;;;;;;5029483;28;20018;-73
2021/05/29 12:47:30;;;;;;;1.33;1.17;;;23.70;99.90;;;;;;5029518;28;20503;-73
2021/05/29 12:49:58;;;;;;;1.27;1.08;;;23.50;99.90;;;;;;5028322;28;20036;-73
2021/05/29 12:52:33;;;;;;;1.75;1.20;;;23.60;99.90;;;;;;5021508;28;20021;-73
2021/05/29 12:55:00;;;;;;;5.63;2.35;;;23.20;99.90;;;;;;5029246;28;20491;-73
2021/05/29 12:57:39;;;;;;;2.53;2.05;;;23.30;99.90;;;;;;5028228;28;20044;-73
2021/05/29 13:00:17;;;;;;;1.75;1.65;;;23.30;99.90;;;;;;5028425;28;20029;-74